Yellowstone National Park, WY

3:44 AM MDT on March 31, 2015 (GMT -0600)
RAWS | | Change Station
CLOSE
Current Station
Personal Weather Station
Location: Yellowstone National Park, WY
Elevation: 7899 ft
Nearby Weather Stations

Elev 7899 ft 44.72 °N, 110.51 °W | Updated 55 minutes ago

Partly Cloudy
Partly Cloudy
28 °F
Feels Like 23 °F
N
4
Wind Variable Wind from North
Gusts 5.0 mph

Today
High -- | Low -- °F
--% Chance of Precip.
Yesterday
High -- | Low -- °F
Precip. -- in
7:04 AM 7:47 PM
Waxing Gibbous, 86% visible
Pressure 30.10 in
Visibility -9999.0 miles
Clouds
Windchill 23 °F
Dew Point 18 °F
Humidity 65%
Rainfall in
Snow Depth Not available.
UV Not available.
Pollen 8.60 out of 12
Air Quality Not available.
Flu Activity Not available.
METAR KP60 310856Z AUTO 00000KT M03/M07 A3016 RMK AO1 SLP193 T10331067 58010 $

More Conditions Fewer Conditions

Pressure 30.10 in
Visibility -9999.0 miles
Clouds
Windchill 23 °F
Dew Point 18 °F
Humidity 65%
Rainfall in
Snow Depth Not available.
UV Not available.
Pollen 8.60 out of 12
Air Quality Not available.
Flu Activity Not available.
METAR KP60 310856Z AUTO 00000KT M03/M07 A3016 RMK AO1 SLP193 T10331067 58010 $

More Conditions Fewer Conditions

10-Day Weather Forecast

Almanac

Astronomy

Mar. 31, 2015 Rise Set
Actual Time
Civil Twilight
Nautical Twilight
Astronomical Twilight
Moon
Length of Visible Light
Length of Day
Tomorrow will be .
, % of the Moon is Illuminated

Today's Extremes

State Highs State Lows

Community

WunderPhotos

Upload Photos

1,809,733 photos uploaded!

WunderBlogs® & News

Nearby

Air Quality

  Air Quality AQ Index Pollutant
Not available.

Snow Depth

Station Depth Elevation

Earthquake Activity

City Distance Mag. Time & Date
Minimum magnitude displayed is 2.5.

Coastal Water Temperatures

Place Temperature

Stations

Nearby Weather Stations

Station Location Temp. Windchill Dew Point Humidity Wind Precip. Elev Updated Type